sensor_id;sensor_type;location;lat;lon;timestamp;P1;durP1;ratioP1;P2;durP2;ratioP2
71176;SDS011;58877;51.992;4.504;2023-11-18T00:01:25;8.37;;;8.37;;
71176;SDS011;58877;51.992;4.504;2023-11-18T00:03:56;8.39;;;8.38;;
71176;SDS011;58877;51.992;4.504;2023-11-18T00:06:21;8.99;;;8.99;;
71176;SDS011;58877;51.992;4.504;2023-11-18T00:08:47;8.16;;;8.15;;
71176;SDS011;58877;51.992;4.504;2023-11-18T00:11:12;8.06;;;8.04;;
71176;SDS011;58877;51.992;4.504;2023-11-18T00:13:38;8.36;;;8.32;;
71176;SDS011;58877;51.992;4.504;2023-11-18T00:16:05;8.49;;;8.47;;
71176;SDS011;58877;51.992;4.504;2023-11-18T00:18:31;8.42;;;8.37;;
71176;SDS011;58877;51.992;4.504;2023-11-18T00:20:57;8.26;;;8.25;;
71176;SDS011;58877;51.992;4.504;2023-11-18T00:23:23;8.14;;;8.14;;
71176;SDS011;58877;51.992;4.504;2023-11-18T00:25:52;8.57;;;8.56;;
71176;SDS011;58877;51.992;4.504;2023-11-18T00:28:18;8.43;;;8.39;;
71176;SDS011;58877;51.992;4.504;2023-11-18T00:30:45;8.27;;;8.26;;
71176;SDS011;58877;51.992;4.504;2023-11-18T00:33:10;8.93;;;8.93;;
71176;SDS011;58877;51.992;4.504;2023-11-18T00:35:36;8.48;;;8.47;;
71176;SDS011;58877;51.992;4.504;2023-11-18T00:38:02;8.84;;;8.84;;
71176;SDS011;58877;51.992;4.504;2023-11-18T00:40:28;8.74;;;8.74;;
71176;SDS011;58877;51.992;4.504;2023-11-18T00:42:55;9.19;;;9.19;;
71176;SDS011;58877;51.992;4.504;2023-11-18T00:45:21;9.55;;;9.53;;
71176;SDS011;58877;51.992;4.504;2023-11-18T00:47:47;9.21;;;9.20;;
71176;SDS011;58877;51.992;4.504;2023-11-18T00:50:16;9.41;;;9.38;;
71176;SDS011;58877;51.992;4.504;2023-11-18T00:52:42;8.79;;;8.77;;
71176;SDS011;58877;51.992;4.504;2023-11-18T00:55:08;8.76;;;8.75;;
71176;SDS011;58877;51.992;4.504;2023-11-18T00:57:36;9.21;;;9.21;;
71176;SDS011;58877;51.992;4.504;2023-11-18T01:00:05;9.50;;;9.47;;
71176;SDS011;58877;51.992;4.504;2023-11-18T01:02:34;9.89;;;9.88;;
71176;SDS011;58877;51.992;4.504;2023-11-18T01:05:00;9.83;;;9.83;;
71176;SDS011;58877;51.992;4.504;2023-11-18T01:07:25;9.52;;;9.50;;
71176;SDS011;58877;51.992;4.504;2023-11-18T01:09:51;9.35;;;9.30;;
71176;SDS011;58877;51.992;4.504;2023-11-18T01:12:17;8.59;;;8.55;;
71176;SDS011;58877;51.992;4.504;2023-11-18T01:14:42;8.84;;;8.72;;
71176;SDS011;58877;51.992;4.504;2023-11-18T01:17:08;9.06;;;9.05;;
71176;SDS011;58877;51.992;4.504;2023-11-18T01:19:36;9.23;;;9.23;;
71176;SDS011;58877;51.992;4.504;2023-11-18T01:22:03;8.79;;;8.79;;
71176;SDS011;58877;51.992;4.504;2023-11-18T01:24:31;8.70;;;8.70;;
71176;SDS011;58877;51.992;4.504;2023-11-18T01:26:57;9.35;;;9.35;;
71176;SDS011;58877;51.992;4.504;2023-11-18T01:29:26;8.86;;;8.82;;
71176;SDS011;58877;51.992;4.504;2023-11-18T01:31:52;8.65;;;8.64;;
71176;SDS011;58877;51.992;4.504;2023-11-18T01:34:20;8.45;;;8.41;;
71176;SDS011;58877;51.992;4.504;2023-11-18T01:36:49;9.29;;;9.27;;
71176;SDS011;58877;51.992;4.504;2023-11-18T01:39:15;8.25;;;8.25;;
71176;SDS011;58877;51.992;4.504;2023-11-18T01:41:44;8.53;;;8.53;;
71176;SDS011;58877;51.992;4.504;2023-11-18T01:44:11;8.46;;;8.42;;
71176;SDS011;58877;51.992;4.504;2023-11-18T01:46:39;8.34;;;8.26;;
71176;SDS011;58877;51.992;4.504;2023-11-18T01:49:10;8.51;;;8.49;;
71176;SDS011;58877;51.992;4.504;2023-11-18T01:51:40;8.21;;;8.21;;
71176;SDS011;58877;51.992;4.504;2023-11-18T01:54:07;8.37;;;8.37;;
71176;SDS011;58877;51.992;4.504;2023-11-18T01:56:40;8.47;;;8.47;;
71176;SDS011;58877;51.992;4.504;2023-11-18T01:59:09;8.28;;;8.27;;
71176;SDS011;58877;51.992;4.504;2023-11-18T02:01:35;7.86;;;7.83;;
71176;SDS011;58877;51.992;4.504;2023-11-18T02:04:01;8.82;;;8.82;;
71176;SDS011;58877;51.992;4.504;2023-11-18T02:06:28;8.45;;;8.43;;
71176;SDS011;58877;51.992;4.504;2023-11-18T02:08:54;8.45;;;8.45;;
71176;SDS011;58877;51.992;4.504;2023-11-18T02:11:26;8.49;;;8.48;;
71176;SDS011;58877;51.992;4.504;2023-11-18T02:13:58;8.96;;;8.96;;
71176;SDS011;58877;51.992;4.504;2023-11-18T02:16:28;8.80;;;8.80;;
71176;SDS011;58877;51.992;4.504;2023-11-18T02:18:53;8.63;;;8.63;;
71176;SDS011;58877;51.992;4.504;2023-11-18T02:21:21;8.30;;;8.29;;
71176;SDS011;58877;51.992;4.504;2023-11-18T02:23:48;9.89;;;9.88;;
71176;SDS011;58877;51.992;4.504;2023-11-18T02:26:21;8.93;;;8.93;;
71176;SDS011;58877;51.992;4.504;2023-11-18T02:28:47;9.20;;;9.20;;
71176;SDS011;58877;51.992;4.504;2023-11-18T02:31:15;9.42;;;9.42;;
71176;SDS011;58877;51.992;4.504;2023-11-18T02:36:31;9.28;;;9.28;;
71176;SDS011;58877;51.992;4.504;2023-11-18T02:39:05;10.14;;;10.14;;
71176;SDS011;58877;51.992;4.504;2023-11-18T02:41:36;9.95;;;9.86;;
71176;SDS011;58877;51.992;4.504;2023-11-18T02:44:04;9.54;;;9.53;;
71176;SDS011;58877;51.992;4.504;2023-11-18T02:46:38;8.99;;;8.95;;
71176;SDS011;58877;51.992;4.504;2023-11-18T02:49:05;9.31;;;9.27;;
71176;SDS011;58877;51.992;4.504;2023-11-18T02:51:40;9.07;;;9.07;;
71176;SDS011;58877;51.992;4.504;2023-11-18T02:54:06;8.95;;;8.95;;
71176;SDS011;58877;51.992;4.504;2023-11-18T02:56:35;8.86;;;8.86;;
71176;SDS011;58877;51.992;4.504;2023-11-18T02:59:04;8.57;;;8.56;;
71176;SDS011;58877;51.992;4.504;2023-11-18T03:01:33;9.06;;;9.05;;
71176;SDS011;58877;51.992;4.504;2023-11-18T03:04:04;8.94;;;8.93;;
71176;SDS011;58877;51.992;4.504;2023-11-18T03:06:30;8.79;;;8.78;;
71176;SDS011;58877;51.992;4.504;2023-11-18T03:08:57;9.49;;;9.49;;
71176;SDS011;58877;51.992;4.504;2023-11-18T03:11:23;8.78;;;8.77;;
71176;SDS011;58877;51.992;4.504;2023-11-18T03:13:49;9.08;;;9.08;;
71176;SDS011;58877;51.992;4.504;2023-11-18T03:16:15;8.72;;;8.72;;
71176;SDS011;58877;51.992;4.504;2023-11-18T03:18:42;9.10;;;9.10;;
71176;SDS011;58877;51.992;4.504;2023-11-18T03:21:14;8.00;;;8.00;;
71176;SDS011;58877;51.992;4.504;2023-11-18T03:23:40;8.47;;;8.44;;
71176;SDS011;58877;51.992;4.504;2023-11-18T03:26:07;8.23;;;8.23;;
71176;SDS011;58877;51.992;4.504;2023-11-18T03:28:33;8.26;;;8.26;;
71176;SDS011;58877;51.992;4.504;2023-11-18T03:30:58;8.47;;;8.47;;
71176;SDS011;58877;51.992;4.504;2023-11-18T03:33:24;8.35;;;8.35;;
71176;SDS011;58877;51.992;4.504;2023-11-18T03:35:50;8.08;;;8.08;;
71176;SDS011;58877;51.992;4.504;2023-11-18T03:38:16;8.22;;;8.22;;
71176;SDS011;58877;51.992;4.504;2023-11-18T03:40:44;8.21;;;8.21;;
71176;SDS011;58877;51.992;4.504;2023-11-18T03:43:11;7.98;;;7.98;;
71176;SDS011;58877;51.992;4.504;2023-11-18T03:45:40;8.33;;;8.33;;
71176;SDS011;58877;51.992;4.504;2023-11-18T03:48:06;8.31;;;8.30;;
71176;SDS011;58877;51.992;4.504;2023-11-18T03:50:32;8.38;;;8.34;;
71176;SDS011;58877;51.992;4.504;2023-11-18T03:52:58;8.19;;;8.18;;
71176;SDS011;58877;51.992;4.504;2023-11-18T03:55:24;8.76;;;8.74;;
71176;SDS011;58877;51.992;4.504;2023-11-18T03:57:53;8.53;;;8.53;;
71176;SDS011;58877;51.992;4.504;2023-11-18T04:00:19;8.87;;;8.86;;
71176;SDS011;58877;51.992;4.504;2023-11-18T04:02:45;8.60;;;8.59;;
71176;SDS011;58877;51.992;4.504;2023-11-18T04:05:12;8.95;;;8.95;;
71176;SDS011;58877;51.992;4.504;2023-11-18T04:07:37;9.47;;;9.47;;
71176;SDS011;58877;51.992;4.504;2023-11-18T04:10:07;9.82;;;9.82;;
71176;SDS011;58877;51.992;4.504;2023-11-18T04:12:35;9.61;;;9.61;;
71176;SDS011;58877;51.992;4.504;2023-11-18T04:15:04;9.50;;;9.50;;
71176;SDS011;58877;51.992;4.504;2023-11-18T04:17:31;9.35;;;9.34;;
71176;SDS011;58877;51.992;4.504;2023-11-18T04:19:57;9.79;;;9.79;;
71176;SDS011;58877;51.992;4.504;2023-11-18T04:22:22;9.94;;;9.94;;
71176;SDS011;58877;51.992;4.504;2023-11-18T04:24:48;9.51;;;9.51;;
71176;SDS011;58877;51.992;4.504;2023-11-18T04:27:15;9.42;;;9.42;;
71176;SDS011;58877;51.992;4.504;2023-11-18T04:29:41;10.18;;;10.18;;
71176;SDS011;58877;51.992;4.504;2023-11-18T04:32:07;9.77;;;9.77;;
71176;SDS011;58877;51.992;4.504;2023-11-18T04:34:38;9.38;;;9.38;;
71176;SDS011;58877;51.992;4.504;2023-11-18T04:37:03;10.20;;;10.20;;
71176;SDS011;58877;51.992;4.504;2023-11-18T04:39:31;9.62;;;9.62;;
71176;SDS011;58877;51.992;4.504;2023-11-18T04:41:57;9.35;;;9.35;;
71176;SDS011;58877;51.992;4.504;2023-11-18T04:44:23;9.77;;;9.77;;
71176;SDS011;58877;51.992;4.504;2023-11-18T04:46:49;9.49;;;9.48;;
71176;SDS011;58877;51.992;4.504;2023-11-18T04:49:15;9.07;;;9.01;;
71176;SDS011;58877;51.992;4.504;2023-11-18T04:51:41;9.44;;;9.40;;
71176;SDS011;58877;51.992;4.504;2023-11-18T04:54:06;9.66;;;9.62;;
71176;SDS011;58877;51.992;4.504;2023-11-18T04:56:33;9.29;;;9.28;;
71176;SDS011;58877;51.992;4.504;2023-11-18T04:59:01;9.05;;;9.03;;
71176;SDS011;58877;51.992;4.504;2023-11-18T05:01:30;8.24;;;8.24;;
71176;SDS011;58877;51.992;4.504;2023-11-18T05:03:56;9.48;;;9.47;;
71176;SDS011;58877;51.992;4.504;2023-11-18T05:06:22;9.58;;;9.55;;
71176;SDS011;58877;51.992;4.504;2023-11-18T05:08:48;9.13;;;9.13;;
71176;SDS011;58877;51.992;4.504;2023-11-18T05:11:14;9.54;;;9.54;;
71176;SDS011;58877;51.992;4.504;2023-11-18T05:13:41;9.48;;;9.48;;
71176;SDS011;58877;51.992;4.504;2023-11-18T05:16:06;9.46;;;9.46;;
71176;SDS011;58877;51.992;4.504;2023-11-18T05:18:32;9.26;;;9.26;;
71176;SDS011;58877;51.992;4.504;2023-11-18T05:21:01;9.04;;;9.04;;
71176;SDS011;58877;51.992;4.504;2023-11-18T05:23:28;9.39;;;9.36;;
71176;SDS011;58877;51.992;4.504;2023-11-18T05:25:57;8.89;;;8.89;;
71176;SDS011;58877;51.992;4.504;2023-11-18T05:28:26;9.08;;;9.08;;
71176;SDS011;58877;51.992;4.504;2023-11-18T05:30:51;8.70;;;8.70;;
71176;SDS011;58877;51.992;4.504;2023-11-18T05:33:17;9.43;;;9.43;;
71176;SDS011;58877;51.992;4.504;2023-11-18T05:35:43;9.12;;;9.12;;
71176;SDS011;58877;51.992;4.504;2023-11-18T05:38:19;8.80;;;8.80;;
71176;SDS011;58877;51.992;4.504;2023-11-18T05:40:47;9.01;;;8.96;;
71176;SDS011;58877;51.992;4.504;2023-11-18T05:43:26;9.67;;;9.59;;
71176;SDS011;58877;51.992;4.504;2023-11-18T05:46:01;8.92;;;8.88;;
71176;SDS011;58877;51.992;4.504;2023-11-18T05:48:46;8.51;;;8.47;;
71176;SDS011;58877;51.992;4.504;2023-11-18T05:51:13;9.32;;;9.30;;
71176;SDS011;58877;51.992;4.504;2023-11-18T05:53:40;9.15;;;9.14;;
71176;SDS011;58877;51.992;4.504;2023-11-18T05:56:09;8.72;;;8.72;;
71176;SDS011;58877;51.992;4.504;2023-11-18T05:58:34;8.38;;;8.37;;
71176;SDS011;58877;51.992;4.504;2023-11-18T06:01:00;8.94;;;8.91;;
71176;SDS011;58877;51.992;4.504;2023-11-18T06:03:25;8.72;;;8.69;;
71176;SDS011;58877;51.992;4.504;2023-11-18T06:05:51;8.96;;;8.92;;
71176;SDS011;58877;51.992;4.504;2023-11-18T06:08:17;8.60;;;8.60;;
71176;SDS011;58877;51.992;4.504;2023-11-18T06:10:42;8.80;;;8.75;;
71176;SDS011;58877;51.992;4.504;2023-11-18T06:13:10;8.60;;;8.51;;
71176;SDS011;58877;51.992;4.504;2023-11-18T06:15:38;8.39;;;8.34;;
71176;SDS011;58877;51.992;4.504;2023-11-18T06:18:04;8.42;;;8.36;;
71176;SDS011;58877;51.992;4.504;2023-11-18T06:20:30;8.72;;;8.69;;
71176;SDS011;58877;51.992;4.504;2023-11-18T06:22:58;8.57;;;8.55;;
71176;SDS011;58877;51.992;4.504;2023-11-18T06:25:23;8.42;;;8.38;;
71176;SDS011;58877;51.992;4.504;2023-11-18T06:27:51;8.46;;;8.38;;
71176;SDS011;58877;51.992;4.504;2023-11-18T06:30:18;8.44;;;8.38;;
71176;SDS011;58877;51.992;4.504;2023-11-18T06:32:45;7.85;;;7.81;;
71176;SDS011;58877;51.992;4.504;2023-11-18T06:35:12;8.00;;;7.96;;
71176;SDS011;58877;51.992;4.504;2023-11-18T06:37:46;8.66;;;8.61;;
71176;SDS011;58877;51.992;4.504;2023-11-18T06:40:12;8.50;;;8.45;;
71176;SDS011;58877;51.992;4.504;2023-11-18T06:42:47;8.05;;;7.99;;
71176;SDS011;58877;51.992;4.504;2023-11-18T06:45:13;8.01;;;7.96;;
71176;SDS011;58877;51.992;4.504;2023-11-18T06:47:40;8.23;;;8.21;;
71176;SDS011;58877;51.992;4.504;2023-11-18T06:50:10;8.35;;;8.32;;
71176;SDS011;58877;51.992;4.504;2023-11-18T06:52:39;7.89;;;7.84;;
71176;SDS011;58877;51.992;4.504;2023-11-18T06:55:06;7.63;;;7.50;;
71176;SDS011;58877;51.992;4.504;2023-11-18T06:57:33;8.19;;;8.11;;
71176;SDS011;58877;51.992;4.504;2023-11-18T07:00:00;8.07;;;8.00;;
71176;SDS011;58877;51.992;4.504;2023-11-18T07:02:25;8.66;;;8.51;;
71176;SDS011;58877;51.992;4.504;2023-11-18T07:04:51;8.37;;;8.17;;
71176;SDS011;58877;51.992;4.504;2023-11-18T07:07:16;7.94;;;7.69;;
71176;SDS011;58877;51.992;4.504;2023-11-18T07:09:42;7.95;;;7.71;;
71176;SDS011;58877;51.992;4.504;2023-11-18T07:12:09;7.85;;;7.71;;
71176;SDS011;58877;51.992;4.504;2023-11-18T07:14:35;7.50;;;7.43;;
71176;SDS011;58877;51.992;4.504;2023-11-18T07:17:01;7.89;;;7.77;;
71176;SDS011;58877;51.992;4.504;2023-11-18T07:19:30;7.25;;;7.07;;
71176;SDS011;58877;51.992;4.504;2023-11-18T07:21:58;7.34;;;7.24;;
71176;SDS011;58877;51.992;4.504;2023-11-18T07:24:24;7.67;;;7.53;;
71176;SDS011;58877;51.992;4.504;2023-11-18T07:26:50;7.14;;;7.04;;
71176;SDS011;58877;51.992;4.504;2023-11-18T07:29:17;7.60;;;7.47;;
71176;SDS011;58877;51.992;4.504;2023-11-18T07:31:42;7.66;;;7.48;;
71176;SDS011;58877;51.992;4.504;2023-11-18T07:34:08;7.34;;;7.17;;
71176;SDS011;58877;51.992;4.504;2023-11-18T07:36:34;7.23;;;7.06;;
71176;SDS011;58877;51.992;4.504;2023-11-18T07:38:59;6.71;;;6.54;;
71176;SDS011;58877;51.992;4.504;2023-11-18T07:41:27;6.84;;;6.75;;
71176;SDS011;58877;51.992;4.504;2023-11-18T07:43:53;6.42;;;6.38;;
71176;SDS011;58877;51.992;4.504;2023-11-18T07:46:21;6.91;;;6.82;;
71176;SDS011;58877;51.992;4.504;2023-11-18T07:48:50;6.53;;;6.46;;
71176;SDS011;58877;51.992;4.504;2023-11-18T07:51:20;6.98;;;6.90;;
71176;SDS011;58877;51.992;4.504;2023-11-18T07:53:49;6.53;;;6.45;;
71176;SDS011;58877;51.992;4.504;2023-11-18T07:56:15;6.20;;;6.18;;
71176;SDS011;58877;51.992;4.504;2023-11-18T07:58:44;6.84;;;6.77;;
71176;SDS011;58877;51.992;4.504;2023-11-18T08:01:13;6.85;;;6.73;;
71176;SDS011;58877;51.992;4.504;2023-11-18T08:03:42;6.53;;;6.44;;
71176;SDS011;58877;51.992;4.504;2023-11-18T08:06:07;6.21;;;6.16;;
71176;SDS011;58877;51.992;4.504;2023-11-18T08:08:34;5.86;;;5.83;;
71176;SDS011;58877;51.992;4.504;2023-11-18T08:11:02;5.94;;;5.91;;
71176;SDS011;58877;51.992;4.504;2023-11-18T08:13:28;5.60;;;5.57;;
71176;SDS011;58877;51.992;4.504;2023-11-18T08:15:53;6.40;;;6.32;;
71176;SDS011;58877;51.992;4.504;2023-11-18T08:18:19;6.06;;;5.99;;
71176;SDS011;58877;51.992;4.504;2023-11-18T08:20:46;5.60;;;5.52;;
71176;SDS011;58877;51.992;4.504;2023-11-18T08:23:12;6.15;;;6.03;;
71176;SDS011;58877;51.992;4.504;2023-11-18T08:25:38;5.58;;;5.54;;
71176;SDS011;58877;51.992;4.504;2023-11-18T08:28:05;5.67;;;5.59;;
71176;SDS011;58877;51.992;4.504;2023-11-18T08:30:32;6.55;;;6.37;;
71176;SDS011;58877;51.992;4.504;2023-11-18T08:33:02;6.11;;;5.91;;
71176;SDS011;58877;51.992;4.504;2023-11-18T08:35:37;5.65;;;5.55;;
71176;SDS011;58877;51.992;4.504;2023-11-18T08:38:02;6.23;;;6.12;;
71176;SDS011;58877;51.992;4.504;2023-11-18T08:40:29;5.94;;;5.90;;
71176;SDS011;58877;51.992;4.504;2023-11-18T08:42:55;5.66;;;5.65;;
71176;SDS011;58877;51.992;4.504;2023-11-18T08:45:22;5.88;;;5.80;;
71176;SDS011;58877;51.992;4.504;2023-11-18T08:47:58;5.60;;;5.49;;
71176;SDS011;58877;51.992;4.504;2023-11-18T08:50:26;5.78;;;5.64;;
71176;SDS011;58877;51.992;4.504;2023-11-18T08:52:54;5.66;;;5.58;;
71176;SDS011;58877;51.992;4.504;2023-11-18T08:55:24;5.50;;;5.37;;
71176;SDS011;58877;51.992;4.504;2023-11-18T08:58:05;5.32;;;5.19;;
71176;SDS011;58877;51.992;4.504;2023-11-18T09:00:44;5.69;;;5.50;;
71176;SDS011;58877;51.992;4.504;2023-11-18T09:03:21;5.39;;;5.21;;
71176;SDS011;58877;51.992;4.504;2023-11-18T09:05:51;5.70;;;5.47;;
71176;SDS011;58877;51.992;4.504;2023-11-18T09:08:33;5.73;;;5.52;;
71176;SDS011;58877;51.992;4.504;2023-11-18T09:11:03;5.35;;;5.25;;
71176;SDS011;58877;51.992;4.504;2023-11-18T09:13:30;5.31;;;5.15;;
71176;SDS011;58877;51.992;4.504;2023-11-18T09:15:57;5.18;;;5.00;;
71176;SDS011;58877;51.992;4.504;2023-11-18T09:18:33;5.29;;;5.07;;
71176;SDS011;58877;51.992;4.504;2023-11-18T09:21:06;4.69;;;4.55;;
71176;SDS011;58877;51.992;4.504;2023-11-18T09:23:35;5.19;;;4.97;;
71176;SDS011;58877;51.992;4.504;2023-11-18T09:26:01;5.16;;;4.89;;
71176;SDS011;58877;51.992;4.504;2023-11-18T09:28:30;4.61;;;4.49;;
71176;SDS011;58877;51.992;4.504;2023-11-18T09:30:55;4.77;;;4.58;;
71176;SDS011;58877;51.992;4.504;2023-11-18T09:33:28;4.53;;;4.30;;
71176;SDS011;58877;51.992;4.504;2023-11-18T09:38:27;4.56;;;4.42;;
71176;SDS011;58877;51.992;4.504;2023-11-18T09:40:59;4.56;;;4.41;;
71176;SDS011;58877;51.992;4.504;2023-11-18T09:43:31;4.33;;;4.15;;
71176;SDS011;58877;51.992;4.504;2023-11-18T09:51:14;4.13;;;3.93;;
71176;SDS011;58877;51.992;4.504;2023-11-18T09:53:46;3.93;;;3.72;;
71176;SDS011;58877;51.992;4.504;2023-11-18T09:56:31;4.02;;;3.81;;
71176;SDS011;58877;51.992;4.504;2023-11-18T09:59:11;4.46;;;4.29;;
71176;SDS011;58877;51.992;4.504;2023-11-18T10:01:41;3.66;;;3.49;;
71176;SDS011;58877;51.992;4.504;2023-11-18T10:04:12;3.95;;;3.75;;
71176;SDS011;58877;51.992;4.504;2023-11-18T10:06:43;3.76;;;3.55;;
71176;SDS011;58877;51.992;4.504;2023-11-18T10:09:11;3.59;;;3.40;;
71176;SDS011;58877;51.992;4.504;2023-11-18T10:11:41;3.83;;;3.60;;
71176;SDS011;58877;51.992;4.504;2023-11-18T10:14:13;3.54;;;3.30;;
71176;SDS011;58877;51.992;4.504;2023-11-18T10:16:41;3.22;;;3.08;;
71176;SDS011;58877;51.992;4.504;2023-11-18T10:19:12;3.60;;;3.51;;
71176;SDS011;58877;51.992;4.504;2023-11-18T10:21:39;3.30;;;3.23;;
71176;SDS011;58877;51.992;4.504;2023-11-18T10:24:06;3.39;;;3.28;;
71176;SDS011;58877;51.992;4.504;2023-11-18T10:26:54;3.14;;;3.01;;
71176;SDS011;58877;51.992;4.504;2023-11-18T10:29:24;3.23;;;3.07;;
71176;SDS011;58877;51.992;4.504;2023-11-18T10:32:03;3.04;;;2.92;;
71176;SDS011;58877;51.992;4.504;2023-11-18T10:34:41;3.18;;;3.02;;
71176;SDS011;58877;51.992;4.504;2023-11-18T10:37:08;3.06;;;2.93;;
71176;SDS011;58877;51.992;4.504;2023-11-18T10:39:36;2.89;;;2.76;;
71176;SDS011;58877;51.992;4.504;2023-11-18T10:42:02;3.09;;;2.92;;
71176;SDS011;58877;51.992;4.504;2023-11-18T10:44:28;2.97;;;2.81;;
71176;SDS011;58877;51.992;4.504;2023-11-18T10:46:55;3.24;;;3.06;;
71176;SDS011;58877;51.992;4.504;2023-11-18T10:49:24;3.11;;;2.90;;
71176;SDS011;58877;51.992;4.504;2023-11-18T10:51:51;2.80;;;2.66;;
71176;SDS011;58877;51.992;4.504;2023-11-18T10:54:17;3.07;;;2.91;;
71176;SDS011;58877;51.992;4.504;2023-11-18T10:56:50;3.12;;;2.98;;
71176;SDS011;58877;51.992;4.504;2023-11-18T10:59:21;3.05;;;2.93;;
71176;SDS011;58877;51.992;4.504;2023-11-18T11:01:48;2.80;;;2.73;;
71176;SDS011;58877;51.992;4.504;2023-11-18T11:04:16;3.14;;;3.05;;
71176;SDS011;58877;51.992;4.504;2023-11-18T11:06:46;2.99;;;2.88;;
71176;SDS011;58877;51.992;4.504;2023-11-18T11:09:21;2.71;;;2.62;;
71176;SDS011;58877;51.992;4.504;2023-11-18T11:11:57;2.70;;;2.59;;
71176;SDS011;58877;51.992;4.504;2023-11-18T11:14:33;2.81;;;2.71;;
71176;SDS011;58877;51.992;4.504;2023-11-18T11:17:16;2.58;;;2.49;;
71176;SDS011;58877;51.992;4.504;2023-11-18T11:20:13;2.78;;;2.69;;
71176;SDS011;58877;51.992;4.504;2023-11-18T11:23:10;2.61;;;2.53;;
71176;SDS011;58877;51.992;4.504;2023-11-18T11:28:21;2.52;;;2.48;;
71176;SDS011;58877;51.992;4.504;2023-11-18T11:30:55;2.70;;;2.66;;
71176;SDS011;58877;51.992;4.504;2023-11-18T11:33:31;2.32;;;2.27;;
71176;SDS011;58877;51.992;4.504;2023-11-18T11:36:05;2.40;;;2.34;;
71176;SDS011;58877;51.992;4.504;2023-11-18T11:38:37;2.17;;;2.12;;
71176;SDS011;58877;51.992;4.504;2023-11-18T11:41:06;2.21;;;2.18;;
71176;SDS011;58877;51.992;4.504;2023-11-18T11:43:34;2.15;;;2.13;;
71176;SDS011;58877;51.992;4.504;2023-11-18T11:46:00;2.00;;;1.98;;
71176;SDS011;58877;51.992;4.504;2023-11-18T11:48:35;2.09;;;2.07;;
71176;SDS011;58877;51.992;4.504;2023-11-18T11:51:09;1.90;;;1.88;;
71176;SDS011;58877;51.992;4.504;2023-11-18T11:53:47;2.20;;;2.17;;
71176;SDS011;58877;51.992;4.504;2023-11-18T11:56:35;2.32;;;2.29;;
71176;SDS011;58877;51.992;4.504;2023-11-18T11:59:03;1.98;;;1.96;;
71176;SDS011;58877;51.992;4.504;2023-11-18T12:01:35;2.20;;;2.17;;
71176;SDS011;58877;51.992;4.504;2023-11-18T12:04:03;1.97;;;1.94;;
71176;SDS011;58877;51.992;4.504;2023-11-18T12:06:41;1.91;;;1.88;;
71176;SDS011;58877;51.992;4.504;2023-11-18T12:09:09;1.84;;;1.82;;
71176;SDS011;58877;51.992;4.504;2023-11-18T12:11:35;1.78;;;1.77;;
71176;SDS011;58877;51.992;4.504;2023-11-18T12:14:08;1.76;;;1.75;;
71176;SDS011;58877;51.992;4.504;2023-11-18T12:17:05;1.67;;;1.67;;
71176;SDS011;58877;51.992;4.504;2023-11-18T12:19:36;1.81;;;1.80;;
71176;SDS011;58877;51.992;4.504;2023-11-18T12:22:13;1.76;;;1.75;;
71176;SDS011;58877;51.992;4.504;2023-11-18T12:24:46;1.38;;;1.37;;
71176;SDS011;58877;51.992;4.504;2023-11-18T12:35:29;1.42;;;1.42;;
71176;SDS011;58877;51.992;4.504;2023-11-18T12:40:56;1.62;;;1.62;;
71176;SDS011;58877;51.992;4.504;2023-11-18T12:49:23;1.62;;;1.61;;
71176;SDS011;58877;51.992;4.504;2023-11-18T12:51:50;1.73;;;1.73;;
71176;SDS011;58877;51.992;4.504;2023-11-18T12:54:18;1.48;;;1.48;;
71176;SDS011;58877;51.992;4.504;2023-11-18T12:56:45;1.48;;;1.48;;
71176;SDS011;58877;51.992;4.504;2023-11-18T12:59:15;1.56;;;1.56;;
71176;SDS011;58877;51.992;4.504;2023-11-18T13:01:44;1.44;;;1.44;;
71176;SDS011;58877;51.992;4.504;2023-11-18T13:04:18;1.59;;;1.59;;
71176;SDS011;58877;51.992;4.504;2023-11-18T13:06:47;1.45;;;1.45;;
71176;SDS011;58877;51.992;4.504;2023-11-18T13:09:14;1.80;;;1.80;;
71176;SDS011;58877;51.992;4.504;2023-11-18T13:11:53;1.75;;;1.75;;
71176;SDS011;58877;51.992;4.504;2023-11-18T13:14:27;1.55;;;1.55;;
71176;SDS011;58877;51.992;4.504;2023-11-18T13:16:55;1.29;;;1.29;;
71176;SDS011;58877;51.992;4.504;2023-11-18T13:19:28;1.21;;;1.21;;
71176;SDS011;58877;51.992;4.504;2023-11-18T13:21:58;1.35;;;1.35;;
71176;SDS011;58877;51.992;4.504;2023-11-18T13:24:25;1.69;;;1.68;;
71176;SDS011;58877;51.992;4.504;2023-11-18T13:26:55;1.59;;;1.59;;
71176;SDS011;58877;51.992;4.504;2023-11-18T13:29:24;1.90;;;1.90;;
71176;SDS011;58877;51.992;4.504;2023-11-18T13:31:50;1.64;;;1.64;;
71176;SDS011;58877;51.992;4.504;2023-11-18T13:34:17;1.53;;;1.53;;
71176;SDS011;58877;51.992;4.504;2023-11-18T13:36:44;1.34;;;1.34;;
71176;SDS011;58877;51.992;4.504;2023-11-18T13:39:16;1.24;;;1.24;;
71176;SDS011;58877;51.992;4.504;2023-11-18T13:41:43;1.44;;;1.44;;
71176;SDS011;58877;51.992;4.504;2023-11-18T13:44:10;1.46;;;1.46;;
71176;SDS011;58877;51.992;4.504;2023-11-18T13:46:44;1.07;;;1.07;;
71176;SDS011;58877;51.992;4.504;2023-11-18T13:49:09;1.17;;;1.17;;
71176;SDS011;58877;51.992;4.504;2023-11-18T13:51:35;0.99;;;0.99;;
71176;SDS011;58877;51.992;4.504;2023-11-18T13:54:01;0.96;;;0.96;;
71176;SDS011;58877;51.992;4.504;2023-11-18T13:56:27;1.01;;;1.01;;
71176;SDS011;58877;51.992;4.504;2023-11-18T13:58:53;0.98;;;0.98;;
71176;SDS011;58877;51.992;4.504;2023-11-18T14:01:19;1.07;;;1.07;;
71176;SDS011;58877;51.992;4.504;2023-11-18T14:03:45;1.16;;;1.16;;
71176;SDS011;58877;51.992;4.504;2023-11-18T14:06:12;0.77;;;0.77;;
71176;SDS011;58877;51.992;4.504;2023-11-18T14:08:45;1.05;;;1.05;;
71176;SDS011;58877;51.992;4.504;2023-11-18T14:11:11;0.80;;;0.80;;
71176;SDS011;58877;51.992;4.504;2023-11-18T14:13:36;0.70;;;0.70;;
71176;SDS011;58877;51.992;4.504;2023-11-18T14:16:02;0.77;;;0.77;;
71176;SDS011;58877;51.992;4.504;2023-11-18T14:18:29;1.14;;;1.14;;
71176;SDS011;58877;51.992;4.504;2023-11-18T14:20:56;1.30;;;1.30;;
71176;SDS011;58877;51.992;4.504;2023-11-18T14:23:22;1.19;;;1.19;;
71176;SDS011;58877;51.992;4.504;2023-11-18T14:25:48;0.94;;;0.94;;
71176;SDS011;58877;51.992;4.504;2023-11-18T14:28:14;0.73;;;0.73;;
71176;SDS011;58877;51.992;4.504;2023-11-18T14:30:40;1.22;;;1.22;;
71176;SDS011;58877;51.992;4.504;2023-11-18T14:33:07;1.16;;;1.16;;
71176;SDS011;58877;51.992;4.504;2023-11-18T14:35:33;0.97;;;0.97;;
71176;SDS011;58877;51.992;4.504;2023-11-18T14:37:59;0.85;;;0.85;;
71176;SDS011;58877;51.992;4.504;2023-11-18T14:40:26;1.10;;;1.09;;
71176;SDS011;58877;51.992;4.504;2023-11-18T14:42:53;0.93;;;0.93;;
71176;SDS011;58877;51.992;4.504;2023-11-18T14:45:19;1.15;;;1.15;;
71176;SDS011;58877;51.992;4.504;2023-11-18T14:47:45;1.07;;;1.07;;
71176;SDS011;58877;51.992;4.504;2023-11-18T14:50:12;0.89;;;0.89;;
71176;SDS011;58877;51.992;4.504;2023-11-18T14:52:49;0.93;;;0.93;;
71176;SDS011;58877;51.992;4.504;2023-11-18T14:55:17;1.28;;;1.27;;
71176;SDS011;58877;51.992;4.504;2023-11-18T14:57:43;1.04;;;1.04;;
71176;SDS011;58877;51.992;4.504;2023-11-18T15:00:10;1.34;;;1.34;;
71176;SDS011;58877;51.992;4.504;2023-11-18T15:02:54;1.54;;;1.54;;
71176;SDS011;58877;51.992;4.504;2023-11-18T15:05:20;1.07;;;1.07;;
71176;SDS011;58877;51.992;4.504;2023-11-18T15:07:47;1.29;;;1.29;;
71176;SDS011;58877;51.992;4.504;2023-11-18T15:10:15;1.41;;;1.41;;
71176;SDS011;58877;51.992;4.504;2023-11-18T15:12:45;1.28;;;1.28;;
71176;SDS011;58877;51.992;4.504;2023-11-18T15:15:18;0.98;;;0.98;;
71176;SDS011;58877;51.992;4.504;2023-11-18T15:17:46;1.03;;;1.03;;
71176;SDS011;58877;51.992;4.504;2023-11-18T15:20:14;1.25;;;1.25;;
71176;SDS011;58877;51.992;4.504;2023-11-18T15:22:48;1.29;;;1.29;;
71176;SDS011;58877;51.992;4.504;2023-11-18T15:25:14;1.13;;;1.13;;
71176;SDS011;58877;51.992;4.504;2023-11-18T15:27:44;1.30;;;1.30;;